Time;durP1;ratioP1;P1;durP2;ratioP2;P2;SDS_P1;SDS_P2;PMS_P1;PMS_P2;Temp;Humidity;BMP_temperature;BMP_pressure;BME280_temperature;BME280_humidity;BME280_pressure;Samples;Min_cycle;Max_cycle;Signal;HPM_P1;HPM_P2
2023/04/08 00:01:03;;;;;;;;;;;;;;;17.08;71.22;101303.81;7397889;19;1183;-57
2023/04/08 00:03:32;;;;;;;;;;;;;;;17.04;71.26;101312.19;7396732;19;1953;-57
2023/04/08 00:06:02;;;;;;;;;;;;;;;17.08;71.10;101319.00;7396964;19;1775;-57
2023/04/08 00:08:30;;;;;;;;;;;;;;;17.00;71.15;101324.91;7394392;19;1959;-57
2023/04/08 00:10:58;;;;;;;;;;;;;;;16.98;71.61;101310.78;7396509;19;1725;-57
2023/04/08 00:13:29;;;;;;;;;;;;;;;17.08;70.97;101311.84;7395625;19;1304;-57
2023/04/08 00:15:58;;;;;;;;;;;;;;;17.05;71.16;101301.38;7395879;19;1987;-57
2023/04/08 00:18:26;;;;;;;;;;;;;;;17.04;71.05;101310.34;7396692;19;1633;-57
2023/04/08 00:20:56;;;;;;;;;;;;;;;17.06;70.90;101318.28;7396585;19;1350;-57
2023/04/08 00:23:24;;;;;;;;;;;;;;;17.06;70.76;101312.94;7395930;19;1389;-57
2023/04/08 00:25:52;;;;;;;;;;;;;;;17.06;70.59;101308.44;7396377;19;992;-57
2023/04/08 00:28:21;;;;;;;;;;;;;;;17.00;71.26;101310.69;7394491;19;1861;-57
2023/04/08 00:30:51;;;;;;;;;;;;;;;17.05;70.75;101313.88;7396292;19;1835;-57
2023/04/08 00:33:20;;;;;;;;;;;;;;;17.13;70.37;101313.34;7395352;19;1457;-57
2023/04/08 00:35:49;;;;;;;;;;;;;;;17.04;70.92;101297.00;7396077;19;1442;-57
2023/04/08 00:38:18;;;;;;;;;;;;;;;16.99;70.86;101315.19;7404370;19;1107;-57
2023/04/08 00:40:46;;;;;;;;;;;;;;;17.05;70.79;101296.03;7403496;19;1859;-57
2023/04/08 00:43:15;;;;;;;;;;;;;;;17.03;70.85;101306.00;7400433;19;1849;-59
2023/04/08 00:45:43;;;;;;;;;;;;;;;17.01;70.90;101299.91;7402758;19;1830;-57
2023/04/08 00:48:15;;;;;;;;;;;;;;;17.06;70.63;101310.25;7403375;19;1833;-57
2023/04/08 00:50:45;;;;;;;;;;;;;;;16.97;70.57;101313.56;7403500;19;1393;-57
2023/04/08 00:53:14;;;;;;;;;;;;;;;16.99;70.51;101301.84;7402119;19;1508;-57
2023/04/08 00:55:43;;;;;;;;;;;;;;;16.96;70.88;101302.03;7402714;19;1950;-57
2023/04/08 00:58:11;;;;;;;;;;;;;;;16.99;71.09;101306.28;7400943;19;1826;-57
2023/04/08 01:00:43;;;;;;;;;;;;;;;17.03;70.47;101302.44;7402599;19;1705;-57
2023/04/08 01:03:18;;;;;;;;;;;;;;;16.95;70.92;101288.78;7402066;19;1520;-57
2023/04/08 01:05:53;;;;;;;;;;;;;;;16.92;70.77;101294.34;7401917;19;1506;-57
2023/04/08 01:08:21;;;;;;;;;;;;;;;16.89;71.10;101296.28;7400332;19;1861;-57
2023/04/08 01:10:51;;;;;;;;;;;;;;;16.92;70.86;101297.88;7401161;19;1728;-57
2023/04/08 01:13:20;;;;;;;;;;;;;;;16.90;71.34;101299.81;7403327;19;1117;-57
2023/04/08 01:15:49;;;;;;;;;;;;;;;17.00;70.89;101297.34;7399581;19;1427;-57
2023/04/08 01:18:20;;;;;;;;;;;;;;;16.87;71.03;101300.00;7401597;19;1599;-57
2023/04/08 01:20:49;;;;;;;;;;;;;;;16.87;71.38;101295.53;7401366;19;1736;-57
2023/04/08 01:23:19;;;;;;;;;;;;;;;16.88;70.73;101294.56;7401576;19;1473;-57
2023/04/08 01:25:51;;;;;;;;;;;;;;;16.89;71.09;101298.97;7402879;19;1484;-57
2023/04/08 01:28:20;;;;;;;;;;;;;;;16.95;70.82;101289.66;7401666;19;1845;-57
2023/04/08 01:30:50;;;;;;;;;;;;;;;16.89;70.91;101306.09;7400544;19;1538;-57
2023/04/08 01:33:21;;;;;;;;;;;;;;;16.98;70.51;101308.13;7400638;19;1281;-57
2023/04/08 01:35:49;;;;;;;;;;;;;;;16.92;70.68;101295.22;7401229;19;1574;-59
2023/04/08 01:38:19;;;;;;;;;;;;;;;16.90;70.85;101287.28;7401071;19;1294;-57
2023/04/08 01:40:51;;;;;;;;;;;;;;;16.84;70.90;101302.91;7401328;19;1672;-57
2023/04/08 01:43:20;;;;;;;;;;;;;;;16.89;71.11;101295.41;7401637;19;1186;-57
2023/04/08 01:45:53;;;;;;;;;;;;;;;17.42;69.48;101301.38;7400710;19;1294;-57
2023/04/08 01:48:22;;;;;;;;;;;;;;;18.39;66.49;101296.00;7398943;19;1851;-57
2023/04/08 01:50:50;;;;;;;;;;;;;;;19.15;64.16;101282.91;7400493;19;1369;-57
2023/04/08 01:53:19;;;;;;;;;;;;;;;19.43;63.36;101295.75;7401053;19;1547;-57
2023/04/08 01:55:48;;;;;;;;;;;;;;;19.89;62.15;101279.53;7400902;19;1635;-57
2023/04/08 01:58:21;;;;;;;;;;;;;;;19.55;63.25;101285.00;7399780;19;1635;-57
2023/04/08 02:00:50;;;;;;;;;;;;;;;19.41;63.81;101286.13;7401010;19;1298;-57
2023/04/08 02:03:20;;;;;;;;;;;;;;;19.46;63.50;101287.47;7400523;19;1852;-57
2023/04/08 02:05:48;;;;;;;;;;;;;;;19.72;62.91;101289.03;7400013;19;1719;-57
2023/04/08 02:08:16;;;;;;;;;;;;;;;19.68;62.78;101288.38;7399508;19;1861;-57
2023/04/08 02:10:45;;;;;;;;;;;;;;;19.79;62.69;101283.00;7399595;19;1575;-57
2023/04/08 02:13:13;;;;;;;;;;;;;;;19.71;62.73;101274.72;7400864;19;1484;-56
2023/04/08 02:15:49;;;;;;;;;;;;;;;19.80;62.52;101279.34;7400143;19;1667;-57
2023/04/08 02:18:18;;;;;;;;;;;;;;;19.81;62.36;101275.66;7399206;19;1434;-57
2023/04/08 02:20:51;;;;;;;;;;;;;;;19.85;62.38;101305.78;7398851;19;1734;-57
2023/04/08 02:23:21;;;;;;;;;;;;;;;19.96;62.09;101270.00;7399288;19;1448;-57
2023/04/08 02:25:50;;;;;;;;;;;;;;;19.97;62.20;101287.81;7399136;19;1118;-57
2023/04/08 02:28:19;;;;;;;;;;;;;;;19.97;62.18;101279.75;7398601;19;1869;-57
2023/04/08 02:30:52;;;;;;;;;;;;;;;19.98;61.84;101276.09;7399877;19;1476;-57
2023/04/08 02:33:22;;;;;;;;;;;;;;;20.00;61.98;101288.41;7398502;19;1538;-57
2023/04/08 02:35:53;;;;;;;;;;;;;;;20.08;61.92;101274.34;7399832;19;1342;-57
2023/04/08 02:38:22;;;;;;;;;;;;;;;20.10;61.92;101275.06;7400817;19;1437;-57
2023/04/08 02:40:51;;;;;;;;;;;;;;;20.17;61.65;101276.22;7400003;19;1670;-57
2023/04/08 02:43:20;;;;;;;;;;;;;;;20.18;61.33;101269.88;7398953;19;1858;-57
2023/04/08 02:45:51;;;;;;;;;;;;;;;20.15;61.76;101269.28;7399476;19;1949;-57
2023/04/08 02:48:19;;;;;;;;;;;;;;;20.02;62.08;101259.59;7398210;19;1369;-57
2023/04/08 02:50:47;;;;;;;;;;;;;;;20.03;62.01;101266.69;7395485;19;1854;-57
2023/04/08 02:53:15;;;;;;;;;;;;;;;20.08;61.74;101258.22;7397828;19;1511;-57
2023/04/08 02:55:44;;;;;;;;;;;;;;;20.07;61.90;101275.31;7398016;19;1476;-57
2023/04/08 02:58:12;;;;;;;;;;;;;;;20.08;62.23;101287.75;7397579;19;1412;-57
2023/04/08 03:00:40;;;;;;;;;;;;;;;20.05;62.12;101285.31;7396614;19;1318;-57
2023/04/08 03:03:11;;;;;;;;;;;;;;;20.05;61.91;101274.59;7398359;19;1471;-57
2023/04/08 03:05:39;;;;;;;;;;;;;;;20.11;61.88;101290.16;7399703;19;1795;-57
2023/04/08 03:08:08;;;;;;;;;;;;;;;20.09;61.95;101275.19;7399129;19;1578;-57
2023/04/08 03:10:36;;;;;;;;;;;;;;;20.14;61.94;101279.19;7396884;19;1840;-58
2023/04/08 03:13:04;;;;;;;;;;;;;;;20.14;61.92;101272.97;7398458;19;1736;-58
2023/04/08 03:15:33;;;;;;;;;;;;;;;20.14;61.60;101275.66;7397744;19;1492;-58
2023/04/08 03:18:01;;;;;;;;;;;;;;;20.18;61.75;101277.94;7398857;19;1554;-58
2023/04/08 03:20:32;;;;;;;;;;;;;;;20.17;61.74;101284.28;7399288;19;1056;-58
2023/04/08 03:23:00;;;;;;;;;;;;;;;20.17;61.77;101278.91;7400166;19;1031;-58
2023/04/08 03:25:29;;;;;;;;;;;;;;;20.17;61.95;101292.31;7398278;19;1814;-58
2023/04/08 03:27:57;;;;;;;;;;;;;;;20.14;61.76;101279.19;7396549;19;2011;-58
2023/04/08 03:30:25;;;;;;;;;;;;;;;20.21;61.69;101296.50;7397484;19;1838;-58
2023/04/08 03:32:54;;;;;;;;;;;;;;;20.27;61.63;101297.78;7398023;19;1421;-58
2023/04/08 03:35:22;;;;;;;;;;;;;;;20.23;61.45;101283.78;7398294;19;1743;-57
2023/04/08 03:37:53;;;;;;;;;;;;;;;20.23;61.75;101302.56;7397687;19;1647;-58
2023/04/08 03:40:22;;;;;;;;;;;;;;;20.29;61.50;101311.06;7396758;19;1562;-58
2023/04/08 03:42:50;;;;;;;;;;;;;;;20.22;61.61;101295.50;7397090;19;1256;-58
2023/04/08 03:45:18;;;;;;;;;;;;;;;20.34;61.32;101301.66;7399103;19;1946;-58
2023/04/08 03:47:47;;;;;;;;;;;;;;;20.26;61.53;101304.97;7397372;19;1958;-58
2023/04/08 03:50:15;;;;;;;;;;;;;;;20.30;61.24;101294.00;7396159;19;1931;-57
2023/04/08 03:52:43;;;;;;;;;;;;;;;20.41;61.09;101304.66;7397501;19;1724;-58
2023/04/08 03:55:14;;;;;;;;;;;;;;;20.39;61.33;101296.75;7397079;19;1812;-58
2023/04/08 03:57:42;;;;;;;;;;;;;;;20.36;61.21;101304.22;7396653;19;1463;-58
2023/04/08 04:00:11;;;;;;;;;;;;;;;20.23;61.61;101297.22;7395721;19;1544;-58
2023/04/08 04:02:40;;;;;;;;;;;;;;;19.64;63.12;101300.34;7395186;19;1570;-58
2023/04/08 04:05:08;;;;;;;;;;;;;;;19.22;64.40;101332.38;7394580;19;1393;-58
2023/04/08 04:07:37;;;;;;;;;;;;;;;18.88;65.23;101314.47;7397044;19;1587;-58
2023/04/08 04:10:05;;;;;;;;;;;;;;;18.72;65.37;101323.78;7395289;19;1864;-58
2023/04/08 04:12:36;;;;;;;;;;;;;;;18.59;65.61;101324.75;7396394;19;1353;-58
2023/04/08 04:15:04;;;;;;;;;;;;;;;18.55;66.05;101319.75;7397055;19;1567;-58
2023/04/08 04:17:33;;;;;;;;;;;;;;;18.84;65.27;101312.13;7397116;19;1314;-58
2023/04/08 04:20:01;;;;;;;;;;;;;;;19.29;63.68;101317.50;7397671;19;1892;-58
2023/04/08 04:22:29;;;;;;;;;;;;;;;19.14;64.20;101308.00;7395877;19;1934;-57
2023/04/08 04:24:58;;;;;;;;;;;;;;;18.86;64.85;101331.63;7396883;19;1548;-58
2023/04/08 04:27:26;;;;;;;;;;;;;;;18.49;65.41;101299.66;7394744;19;1452;-58
2023/04/08 04:29:57;;;;;;;;;;;;;;;18.73;65.53;101336.22;7394401;19;1863;-58
2023/04/08 04:32:25;;;;;;;;;;;;;;;19.19;63.98;101325.41;7396341;19;1472;-58
2023/04/08 04:34:53;;;;;;;;;;;;;;;19.30;63.67;101337.97;7391978;19;1491;-58
2023/04/08 04:37:22;;;;;;;;;;;;;;;18.87;64.57;101336.88;6365391;19;10000714;-58
2023/04/08 04:39:50;;;;;;;;;;;;;;;18.62;65.60;101340.59;7387501;19;1445;-58
2023/04/08 04:42:18;;;;;;;;;;;;;;;18.67;65.55;101341.06;7387894;19;1599;-58
2023/04/08 04:44:46;;;;;;;;;;;;;;;18.97;64.63;101341.50;7388660;19;1574;-58
2023/04/08 04:47:17;;;;;;;;;;;;;;;19.33;64.29;101345.75;7388152;19;1528;-58
2023/04/08 04:49:46;;;;;;;;;;;;;;;19.15;64.76;101344.56;7386323;19;1876;-57
2023/04/08 04:52:14;;;;;;;;;;;;;;;18.91;66.00;101350.88;7394776;19;1402;-58
2023/04/08 04:54:42;;;;;;;;;;;;;;;18.69;66.33;101360.56;7394560;19;1198;-58
2023/04/08 04:57:11;;;;;;;;;;;;;;;18.61;66.46;101349.59;7391079;19;1797;-57
2023/04/08 04:59:39;;;;;;;;;;;;;;;19.05;65.22;101352.47;7388728;19;1522;-58
2023/04/08 05:02:08;;;;;;;;;;;;;;;19.16;64.82;101359.66;7390397;19;1393;-60
2023/04/08 05:04:39;;;;;;;;;;;;;;;18.85;65.87;101362.09;7392722;19;1994;-60
2023/04/08 05:07:07;;;;;;;;;;;;;;;18.63;66.57;101360.19;7393905;19;1028;-61
2023/04/08 05:09:35;;;;;;;;;;;;;;;18.84;66.15;101355.88;7393323;19;1858;-60
2023/04/08 05:12:04;;;;;;;;;;;;;;;19.39;64.52;101353.31;7391571;19;1274;-60
2023/04/08 05:14:32;;;;;;;;;;;;;;;19.11;65.24;101362.72;7390690;19;1541;-60
2023/04/08 05:17:00;;;;;;;;;;;;;;;18.82;66.13;101359.63;7386371;19;1260;-60
2023/04/08 05:19:28;;;;;;;;;;;;;;;18.61;66.57;101354.09;7390325;19;1227;-60
2023/04/08 05:21:59;;;;;;;;;;;;;;;18.91;65.52;101356.25;7389764;19;1543;-60
2023/04/08 05:24:28;;;;;;;;;;;;;;;19.43;63.96;101348.56;7396380;19;1416;-60
2023/04/08 05:26:56;;;;;;;;;;;;;;;19.11;64.37;101340.41;7398010;19;1452;-60
2023/04/08 05:29:25;;;;;;;;;;;;;;;18.82;65.50;101360.50;7396033;19;1850;-61
2023/04/08 05:31:53;;;;;;;;;;;;;;;18.54;65.92;101345.66;7399923;19;1562;-57
2023/04/08 05:34:22;;;;;;;;;;;;;;;18.84;64.70;101363.03;7397489;19;1832;-58
2023/04/08 05:36:51;;;;;;;;;;;;;;;19.39;62.18;101341.72;7391000;19;1275;-58
2023/04/08 05:39:22;;;;;;;;;;;;;;;19.15;62.67;101349.91;7397565;19;1186;-57
2023/04/08 05:41:50;;;;;;;;;;;;;;;18.90;63.44;101335.81;7399221;19;1615;-58
2023/04/08 05:44:18;;;;;;;;;;;;;;;18.78;63.34;101348.28;7399623;19;1459;-58
2023/04/08 05:46:46;;;;;;;;;;;;;;;19.18;62.20;101330.91;7399663;19;1826;-58
2023/04/08 05:49:16;;;;;;;;;;;;;;;19.44;61.36;101329.66;7399688;19;1965;-57
2023/04/08 05:51:44;;;;;;;;;;;;;;;19.15;62.27;101339.19;7397256;19;1845;-57
2023/04/08 05:54:12;;;;;;;;;;;;;;;18.95;62.73;101346.16;7397955;19;1368;-57
2023/04/08 05:56:45;;;;;;;;;;;;;;;18.97;62.78;101358.44;7399364;19;1539;-57
2023/04/08 05:59:13;;;;;;;;;;;;;;;19.60;61.07;101344.50;7397512;19;1482;-57
2023/04/08 06:01:41;;;;;;;;;;;;;;;19.52;61.59;101344.25;7399394;19;1219;-57
2023/04/08 06:04:10;;;;;;;;;;;;;;;19.19;62.34;101351.38;7399162;19;1522;-57
2023/04/08 06:06:39;;;;;;;;;;;;;;;18.92;63.16;101368.69;7398982;19;1327;-57
2023/04/08 06:09:08;;;;;;;;;;;;;;;18.75;63.12;101361.06;7396407;19;1527;-57
2023/04/08 06:11:37;;;;;;;;;;;;;;;19.19;61.10;101357.59;7394899;19;1858;-57
2023/04/08 06:14:07;;;;;;;;;;;;;;;19.53;60.65;101359.41;7400088;19;1158;-57
2023/04/08 06:16:36;;;;;;;;;;;;;;;19.55;60.44;101350.22;7398958;19;1943;-58
2023/04/08 06:19:04;;;;;;;;;;;;;;;19.18;61.66;101360.38;7397096;19;1540;-57
2023/04/08 06:21:32;;;;;;;;;;;;;;;18.89;62.69;101363.56;7396329;19;1516;-58
2023/04/08 06:24:00;;;;;;;;;;;;;;;18.94;61.79;101349.78;7398328;19;1589;-57
2023/04/08 06:26:29;;;;;;;;;;;;;;;19.54;60.22;101350.38;7398037;19;1631;-57
2023/04/08 06:28:57;;;;;;;;;;;;;;;19.79;60.01;101357.28;7396193;19;1225;-60
2023/04/08 06:31:28;;;;;;;;;;;;;;;19.44;61.01;101353.81;7390700;19;1853;-64
2023/04/08 06:33:56;;;;;;;;;;;;;;;19.17;62.30;101358.69;7398335;19;1528;-58
2023/04/08 06:36:25;;;;;;;;;;;;;;;18.98;62.43;101378.94;7398157;19;1496;-58
2023/04/08 06:38:53;;;;;;;;;;;;;;;19.12;62.08;101366.25;7398795;19;1628;-58
2023/04/08 06:41:22;;;;;;;;;;;;;;;19.53;60.93;101348.66;7399597;19;1149;-57
2023/04/08 06:43:50;;;;;;;;;;;;;;;19.81;60.62;101358.84;7397995;19;1527;-57
2023/04/08 06:46:18;;;;;;;;;;;;;;;19.45;62.10;101363.53;7398272;19;1243;-57
2023/04/08 06:48:49;;;;;;;;;;;;;;;19.15;63.08;101364.16;7397037;19;1389;-57
2023/04/08 06:51:17;;;;;;;;;;;;;;;18.91;63.88;101364.28;7396273;19;1859;-57
2023/04/08 06:53:46;;;;;;;;;;;;;;;19.15;63.42;101352.59;7397733;19;1508;-57
2023/04/08 06:56:14;;;;;;;;;;;;;;;19.61;61.79;101356.94;7396826;19;1450;-57
2023/04/08 06:58:42;;;;;;;;;;;;;;;19.68;61.17;101366.19;7395969;19;1476;-57
2023/04/08 07:01:11;;;;;;;;;;;;;;;19.26;62.19;101357.97;7398665;19;1583;-57
2023/04/08 07:03:39;;;;;;;;;;;;;;;18.68;61.50;101358.00;7396550;19;1124;-57
2023/04/08 07:06:10;;;;;;;;;;;;;;;18.80;59.56;101361.59;7396920;19;1423;-57
2023/04/08 07:08:38;;;;;;;;;;;;;;;19.25;59.37;101362.47;7392827;19;1619;-58
2023/04/08 07:11:07;;;;;;;;;;;;;;;19.63;58.93;101344.25;7391977;19;1849;-57
2023/04/08 07:13:35;;;;;;;;;;;;;;;19.32;59.83;101353.91;7394422;19;1206;-57
2023/04/08 07:16:03;;;;;;;;;;;;;;;19.05;60.60;101344.44;7393419;19;1463;-57
2023/04/08 07:18:31;;;;;;;;;;;;;;;18.84;61.71;101369.28;7392685;19;1205;-57
2023/04/08 07:21:00;;;;;;;;;;;;;;;19.14;60.93;101348.19;7394080;19;1249;-58
2023/04/08 07:23:31;;;;;;;;;;;;;;;19.39;60.41;101353.31;7392577;19;1530;-60
2023/04/08 07:26:03;;;;;;;;;;;;;;;19.19;61.19;101348.69;7395387;19;1204;-60
2023/04/08 07:28:31;;;;;;;;;;;;;;;18.97;62.03;101350.41;7394163;19;1621;-60
2023/04/08 07:31:10;;;;;;;;;;;;;;;18.78;62.70;101366.19;7393644;19;1876;-58
2023/04/08 07:33:38;;;;;;;;;;;;;;;18.64;62.84;101378.84;7391728;19;1594;-57
2023/04/08 07:36:06;;;;;;;;;;;;;;;18.49;63.05;101382.69;7390975;19;1957;-58
2023/04/08 07:38:37;;;;;;;;;;;;;;;18.38;63.48;101370.13;7392911;19;1424;-58
2023/04/08 07:41:06;;;;;;;;;;;;;;;18.42;63.53;101368.91;7392500;19;1219;-58
2023/04/08 07:43:35;;;;;;;;;;;;;;;18.38;63.67;101378.16;7393594;19;1268;-58
2023/04/08 07:46:04;;;;;;;;;;;;;;;18.39;63.67;101379.00;7390696;19;1539;-57
2023/04/08 07:48:33;;;;;;;;;;;;;;;18.36;63.61;101352.44;7392312;19;1629;-57
2023/04/08 07:51:05;;;;;;;;;;;;;;;18.39;63.64;101368.28;7392566;19;1845;-57
2023/04/08 07:53:33;;;;;;;;;;;;;;;18.25;64.11;101372.00;7392964;19;1490;-57
2023/04/08 07:56:05;;;;;;;;;;;;;;;18.22;64.00;101365.06;7393341;19;1566;-57
2023/04/08 07:58:33;;;;;;;;;;;;;;;18.21;64.13;101362.50;7390961;19;1177;-58
2023/04/08 08:01:02;;;;;;;;;;;;;;;18.20;64.29;101374.16;7393208;19;1720;-57
2023/04/08 08:03:30;;;;;;;;;;;;;;;18.17;64.40;101380.63;7392275;19;1929;-58
2023/04/08 08:06:00;;;;;;;;;;;;;;;18.17;64.42;101367.25;7391965;19;1531;-57
2023/04/08 08:08:28;;;;;;;;;;;;;;;18.23;64.58;101376.63;7392694;19;1589;-58
2023/04/08 08:10:56;;;;;;;;;;;;;;;18.31;64.21;101376.06;7390927;19;1851;-58
2023/04/08 08:13:27;;;;;;;;;;;;;;;18.26;64.40;101368.34;7396563;19;1197;-58
2023/04/08 08:15:56;;;;;;;;;;;;;;;18.22;64.54;101370.44;7395392;19;1563;-58
2023/04/08 08:18:24;;;;;;;;;;;;;;;18.23;64.48;101364.09;7396367;19;1463;-58
2023/04/08 08:20:52;;;;;;;;;;;;;;;18.25;64.36;101367.50;7395446;19;1232;-58
2023/04/08 08:23:20;;;;;;;;;;;;;;;18.25;64.60;101354.13;7395943;19;1589;-58
2023/04/08 08:25:49;;;;;;;;;;;;;;;18.20;64.50;101361.63;7396325;19;1038;-58
2023/04/08 08:28:17;;;;;;;;;;;;;;;18.23;64.88;101365.94;7394796;19;1665;-58
2023/04/08 08:30:48;;;;;;;;;;;;;;;18.17;64.87;101359.22;7394909;19;1880;-58
2023/04/08 08:33:16;;;;;;;;;;;;;;;18.18;64.69;101370.75;7395237;19;1487;-58
2023/04/08 08:35:45;;;;;;;;;;;;;;;18.19;64.89;101370.66;7395009;19;1611;-58
2023/04/08 08:38:14;;;;;;;;;;;;;;;18.18;65.03;101390.34;7395058;19;1180;-58
2023/04/08 08:40:42;;;;;;;;;;;;;;;18.11;65.12;101369.53;7395024;19;1933;-57
2023/04/08 08:43:11;;;;;;;;;;;;;;;18.11;65.11;101365.03;7394705;19;1139;-58
2023/04/08 08:45:40;;;;;;;;;;;;;;;18.16;64.91;101368.19;7393850;19;1508;-57
2023/04/08 08:48:11;;;;;;;;;;;;;;;18.18;62.50;101363.56;7384358;19;1569;-60
2023/04/08 08:50:39;;;;;;;;;;;;;;;18.21;62.84;101378.56;7391904;19;1853;-60
2023/04/08 08:53:08;;;;;;;;;;;;;;;18.18;63.62;101371.59;7389318;19;1191;-60
2023/04/08 08:55:37;;;;;;;;;;;;;;;18.17;63.77;101369.06;7393729;19;1563;-60
2023/04/08 08:58:06;;;;;;;;;;;;;;;18.16;64.02;101368.19;7393517;19;1487;-60
2023/04/08 09:00:35;;;;;;;;;;;;;;;18.15;64.27;101360.28;7397373;19;1257;-60
2023/04/08 09:03:18;;;;;;;;;;;;;;;18.12;64.13;101366.72;7399001;19;1404;-60
2023/04/08 09:05:50;;;;;;;;;;;;;;;18.10;64.37;101379.34;7398030;19;1613;-60
2023/04/08 09:08:25;;;;;;;;;;;;;;;18.11;64.25;101357.00;7398071;19;1538;-60
2023/04/08 09:10:54;;;;;;;;;;;;;;;18.15;64.00;101369.19;7399743;19;1842;-60
2023/04/08 09:13:23;;;;;;;;;;;;;;;18.19;63.98;101375.16;7401913;19;1229;-60
2023/04/08 09:16:05;;;;;;;;;;;;;;;18.14;64.54;101380.00;7399123;19;1434;-60
2023/04/08 09:18:36;;;;;;;;;;;;;;;18.14;65.15;101380.84;7400962;19;1379;-58
2023/04/08 09:21:05;;;;;;;;;;;;;;;18.19;64.64;101377.84;7400273;19;1132;-60
2023/04/08 09:23:39;;;;;;;;;;;;;;;18.13;63.91;101368.44;7397387;19;1384;-60
2023/04/08 09:26:11;;;;;;;;;;;;;;;18.15;64.45;101355.78;7401085;19;1606;-61
2023/04/08 09:28:40;;;;;;;;;;;;;;;18.73;63.35;101381.78;7399410;19;1947;-61
2023/04/08 09:31:20;;;;;;;;;;;;;;;19.34;62.09;101368.06;7396119;19;1857;-60
2023/04/08 09:33:51;;;;;;;;;;;;;;;19.59;61.42;101359.72;7399263;19;1446;-60
2023/04/08 09:36:19;;;;;;;;;;;;;;;19.68;59.95;101356.31;7399239;19;1285;-61
2023/04/08 09:38:48;;;;;;;;;;;;;;;19.62;59.85;101356.81;7400872;19;1586;-60
2023/04/08 09:41:17;;;;;;;;;;;;;;;19.76;58.67;101358.41;7396079;19;1528;-61
2023/04/08 09:43:48;;;;;;;;;;;;;;;19.53;60.15;101370.97;7395785;19;1496;-60
2023/04/08 09:46:18;;;;;;;;;;;;;;;19.14;61.00;101364.28;7395300;19;1191;-61
2023/04/08 09:48:58;;;;;;;;;;;;;;;18.97;61.66;101363.81;7396630;19;1552;-60
2023/04/08 09:51:27;;;;;;;;;;;;;;;19.02;61.43;101367.00;7394948;19;1841;-60
2023/04/08 09:53:58;;;;;;;;;;;;;;;19.53;60.26;101359.41;7396318;19;1539;-60
2023/04/08 09:56:28;;;;;;;;;;;;;;;19.53;60.57;101370.13;7396089;19;1561;-60
2023/04/08 09:59:00;;;;;;;;;;;;;;;19.15;61.73;101371.38;7395264;19;1116;-60
2023/04/08 10:01:30;;;;;;;;;;;;;;;18.85;62.59;101376.34;7395638;19;1543;-61
2023/04/08 10:04:02;;;;;;;;;;;;;;;18.89;62.44;101374.28;7395883;19;1441;-61
2023/04/08 10:06:32;;;;;;;;;;;;;;;19.39;61.08;101368.56;7398332;19;1679;-62
2023/04/08 10:09:01;;;;;;;;;;;;;;;19.54;60.42;101367.31;7398465;19;1500;-61
2023/04/08 10:11:29;;;;;;;;;;;;;;;19.22;61.30;101372.59;7398699;19;1842;-62
2023/04/08 10:13:58;;;;;;;;;;;;;;;18.93;62.02;101383.78;7400284;19;1292;-61
2023/04/08 10:16:27;;;;;;;;;;;;;;;18.87;62.72;101368.19;7399743;19;1218;-61
2023/04/08 10:18:57;;;;;;;;;;;;;;;19.28;61.49;101361.38;7399978;19;1638;-61
2023/04/08 10:21:38;;;;;;;;;;;;;;;19.55;60.75;101352.91;7399303;19;1657;-61
2023/04/08 10:24:10;;;;;;;;;;;;;;;19.27;61.53;101355.13;7400191;19;1393;-60
2023/04/08 10:26:39;;;;;;;;;;;;;;;18.99;62.61;101372.56;7398806;19;1637;-61
2023/04/08 10:29:22;;;;;;;;;;;;;;;18.83;63.19;101345.28;7397923;19;1256;-61
2023/04/08 10:31:51;;;;;;;;;;;;;;;19.28;62.08;101353.34;7397862;19;1845;-60
2023/04/08 10:34:20;;;;;;;;;;;;;;;19.58;61.13;101335.75;7398707;19;1128;-60
2023/04/08 10:36:51;;;;;;;;;;;;;;;19.31;61.93;101365.63;7399480;19;1068;-61
2023/04/08 10:39:20;;;;;;;;;;;;;;;19.01;62.63;101354.53;7398916;19;1900;-61
2023/04/08 10:41:49;;;;;;;;;;;;;;;18.87;63.07;101355.63;7397927;19;1554;-61
2023/04/08 10:44:18;;;;;;;;;;;;;;;19.19;62.47;101335.28;7398205;19;1228;-60
2023/04/08 10:46:46;;;;;;;;;;;;;;;19.59;61.40;101343.63;7399189;19;1070;-60
2023/04/08 10:49:15;;;;;;;;;;;;;;;19.34;61.90;101334.06;7398417;19;1509;-61
2023/04/08 10:51:44;;;;;;;;;;;;;;;19.06;62.42;101330.06;7397576;19;1848;-61
2023/04/08 10:54:15;;;;;;;;;;;;;;;18.91;62.78;101336.63;7397642;19;1548;-61
2023/04/08 10:56:47;;;;;;;;;;;;;;;19.01;62.95;101334.94;7397470;19;1401;-61
2023/04/08 10:59:19;;;;;;;;;;;;;;;19.56;61.51;101322.44;7396099;19;1614;-60
2023/04/08 11:01:48;;;;;;;;;;;;;;;19.48;61.71;101339.16;7398153;19;1478;-60
2023/04/08 11:04:17;;;;;;;;;;;;;;;19.19;62.46;101341.50;7398258;19;1184;-60
2023/04/08 11:06:46;;;;;;;;;;;;;;;18.87;62.38;101336.03;7398424;19;1227;-60
2023/04/08 11:09:17;;;;;;;;;;;;;;;18.78;62.85;101342.06;7396750;19;1285;-60
2023/04/08 11:11:46;;;;;;;;;;;;;;;19.36;61.41;101315.16;7396306;19;1848;-60
2023/04/08 11:14:16;;;;;;;;;;;;;;;19.63;60.33;101309.38;7397689;19;1184;-60
2023/04/08 11:16:44;;;;;;;;;;;;;;;19.32;61.20;101317.25;7398362;19;1081;-60
2023/04/08 11:19:15;;;;;;;;;;;;;;;19.05;61.53;101323.84;7394789;19;1520;-60
2023/04/08 11:21:44;;;;;;;;;;;;;;;18.86;62.30;101321.78;7393790;19;1427;-57
2023/04/08 11:24:15;;;;;;;;;;;;;;;19.00;62.48;101323.38;7396022;19;1634;-58
2023/04/08 11:26:46;;;;;;;;;;;;;;;19.58;61.14;101308.91;7397065;19;1597;-58
2023/04/08 11:29:15;;;;;;;;;;;;;;;19.43;60.99;101317.22;7397378;19;1557;-58
2023/04/08 11:31:46;;;;;;;;;;;;;;;19.10;62.28;101325.28;7396247;19;1865;-58
2023/04/08 11:34:14;;;;;;;;;;;;;;;18.83;62.56;101308.59;7397468;19;1101;-58
2023/04/08 11:36:42;;;;;;;;;;;;;;;18.94;62.62;101325.66;7397388;19;1475;-58
2023/04/08 11:39:11;;;;;;;;;;;;;;;19.54;61.03;101311.00;7396176;19;1524;-58
2023/04/08 11:41:40;;;;;;;;;;;;;;;19.42;61.42;101303.94;7396797;19;1610;-58
2023/04/08 11:44:11;;;;;;;;;;;;;;;19.17;61.99;101297.03;7396294;19;1131;-57
2023/04/08 11:46:41;;;;;;;;;;;;;;;19.47;61.45;101291.84;7396658;19;2178;-57
2023/04/08 11:49:10;;;;;;;;;;;;;;;20.02;59.83;101288.28;7396111;19;1558;-57
2023/04/08 11:51:53;;;;;;;;;;;;;;;20.50;58.97;101287.75;7395020;19;1857;-57
2023/04/08 11:54:27;;;;;;;;;;;;;;;20.51;58.85;101297.50;7395485;19;1634;-57
2023/04/08 11:56:57;;;;;;;;;;;;;;;20.56;58.70;101268.41;7396611;19;1557;-57
2023/04/08 11:59:28;;;;;;;;;;;;;;;20.60;58.97;101275.25;7395121;19;1604;-57
2023/04/08 12:01:56;;;;;;;;;;;;;;;20.55;58.88;101269.41;7394494;19;1562;-57
2023/04/08 12:04:24;;;;;;;;;;;;;;;20.35;59.40;101267.56;7395540;19;1503;-57
2023/04/08 12:06:52;;;;;;;;;;;;;;;20.35;59.15;101275.63;7395691;19;1440;-57
2023/04/08 12:09:21;;;;;;;;;;;;;;;20.50;58.49;101257.34;7394957;19;1496;-57
2023/04/08 12:11:49;;;;;;;;;;;;;;;20.42;58.14;101255.31;7395417;19;1850;-58
2023/04/08 12:14:17;;;;;;;;;;;;;;;20.46;58.32;101280.94;7395649;19;1464;-58
2023/04/08 12:16:48;;;;;;;;;;;;;;;20.56;58.29;101271.09;7395809;19;1218;-57
2023/04/08 12:19:16;;;;;;;;;;;;;;;20.64;58.25;101274.00;7395793;19;1604;-57
2023/04/08 12:21:44;;;;;;;;;;;;;;;20.63;58.20;101253.50;7395212;19;1487;-60
2023/04/08 12:24:13;;;;;;;;;;;;;;;20.58;57.92;101282.56;7394857;19;1492;-55
2023/04/08 12:26:41;;;;;;;;;;;;;;;20.55;58.13;101272.09;7392514;19;1487;-59
2023/04/08 12:29:10;;;;;;;;;;;;;;;20.46;58.82;101284.47;7395329;19;1220;-58
2023/04/08 12:31:38;;;;;;;;;;;;;;;20.46;58.45;101278.25;7395658;19;1143;-58
2023/04/08 12:34:09;;;;;;;;;;;;;;;20.66;58.35;101263.13;7399605;19;1904;-54
2023/04/08 12:36:38;;;;;;;;;;;;;;;20.66;58.33;101282.78;7402145;19;1264;-59
2023/04/08 12:39:06;;;;;;;;;;;;;;;20.60;58.63;101280.63;7402000;19;1292;-59
2023/04/08 12:41:34;;;;;;;;;;;;;;;20.48;58.92;101278.13;7401178;19;1318;-59
2023/04/08 12:44:02;;;;;;;;;;;;;;;20.37;58.69;101268.28;7402568;19;1508;-59
2023/04/08 12:46:31;;;;;;;;;;;;;;;20.40;59.02;101268.88;7402761;19;1530;-59
2023/04/08 12:48:59;;;;;;;;;;;;;;;20.44;58.95;101275.69;7402613;19;1622;-60
2023/04/08 12:51:31;;;;;;;;;;;;;;;20.51;59.16;101267.94;7401936;19;1179;-49
2023/04/08 12:53:59;;;;;;;;;;;;;;;20.46;59.42;101257.59;7397478;19;1836;-51
2023/04/08 12:56:27;;;;;;;;;;;;;;;20.40;59.49;101276.09;7399215;19;1404;-51